Margraten, Netherlands
Current Conditions -  °F | °C
As of 12:55 AM on Thursday 27 Nov 2014 (Local Time) from EHBK Reporting Station
Overcast Overcast  
Wind Chill: 42°   Ceiling: 2300
Heat Index: 45°   Visibility: 4mi
Dew Point: 43°   Wind: 5mph
Humidity: 93%   Direction: 100°E
Pressure: 29.83"   Gusts: NA
Location:  50.82°N, 5.82°E
Report Text: EHBK 262355Z AUTO 10004KT 6000 OVC023 07/06 Q1010
Loading
Personal Weather Stations






























Interactive Weather Map New forecast layout! Learn more

10-Day Weather Forecast

Advertisements
Track Severe Weather on mobile